Skip Navigation Links
NOAA logo - Click to go to the NOAA homepage
NOAA's National Weather Service
Alaska Aviation Weather Unit
  NWS logo - Click to go to the NWS homepage
Left Navbar Graphic     02 AKDT = 10 GMT

   
NOAA is celebrating 200 years of science, service, and stewardship. Visit the NOAA 200th celebration Web site to learn more.
USA.gov is the U.S. Government's official Web portal to all Federal, state and local government Web resources and services.
Facebook
NWS on Facebook

AAWU Home :: Display TAF Add Bookmark
TAF PABT 270520Z 2706/2806 35004KT P6SM SKC
     FM272200 04007KT P6SM FEW100 SCT200=
METAR PABT 270453Z 00000KT 10SM CLR M14/M22 A2990 RMK AO2 SLP149
     T11441217=

METAR PABT 270553Z 00000KT 10SM CLR M19/M24 A2990 RMK AO2 SLP151 4/024
     T11941244 11072 21194 55001=

METAR PABT 270653Z 00000KT 10SM CLR M23/M26 A2991 RMK AO2 SLP153
 T12281261=

METAR PABT 270753Z 35006KT 10SM CLR M22/M24 A2991 RMK AO2 SLP153
     T12171244=

METAR PABT 270853Z COR 01004KT 10SM CLR M17/M23 A2991 RMK AO2 SLP150
     T11721228 410671283 50002=

METAR PABT 270953Z 35005KT 10SM CLR M18/M24 A2991 RMK AO2 SLP151
     T11831239=


NOAA's National Weather Service
Alaska Aviation Weather Unit
6930 Sand Lake Road
Anchorage, AK 99502-1845
Disclaimer
Credits
Glossary
Privacy Policy
About Us
Career Opportunities
Contact AAWU Internet Services Site last modified: April, 17th 2012